Time;durP1;ratioP1;P1;durP2;ratioP2;P2;SDS_P1;SDS_P2;PMS_P1;PMS_P2;Temp;Humidity;BMP_temperature;BMP_pressure;BME280_temperature;BME280_humidity;BME280_pressure;Samples;Min_cycle;Max_cycle;Signal;HPM_P1;HPM_P2
2020/12/10 00:00:57;;;;;;;2.30;1.70;;;2.20;99.90;;;;;;5096092;28;20205;-77
2020/12/10 00:03:22;;;;;;;3.23;2.80;;;2.10;99.90;;;;;;5096239;28;20270;-77
2020/12/10 00:05:48;;;;;;;1.67;1.53;;;2.10;99.90;;;;;;5094736;28;20247;-77
2020/12/10 00:08:13;;;;;;;2.37;1.83;;;2.00;99.90;;;;;;5095542;28;20282;-78
2020/12/10 00:10:39;;;;;;;1.90;1.17;;;2.10;99.90;;;;;;5094652;28;20173;-78
2020/12/10 00:13:05;;;;;;;2.63;2.53;;;2.10;99.90;;;;;;5095781;28;20211;-77
2020/12/10 00:25:45;;;;;;;5.47;4.57;;;2.50;99.90;;;;;;5095855;28;20162;-77
2020/12/10 00:28:10;;;;;;;2.10;2.00;;;2.60;99.90;;;;;;5095536;28;20171;-77
2020/12/10 00:30:36;;;;;;;0.87;0.87;;;2.70;99.90;;;;;;5095834;28;20171;-77
2020/12/10 00:33:02;;;;;;;2.20;2.10;;;2.80;99.90;;;;;;5095303;28;20288;-78
2020/12/10 00:35:28;;;;;;;1.90;1.70;;;2.80;99.90;;;;;;5095405;28;20211;-78
2020/12/10 00:37:53;;;;;;;1.87;1.77;;;2.70;99.90;;;;;;5094012;28;20654;-78
2020/12/10 00:40:19;;;;;;;2.37;1.93;;;2.60;99.90;;;;;;5095300;28;20170;-78
2020/12/10 00:42:45;;;;;;;1.07;1.07;;;2.60;99.90;;;;;;5095614;28;20558;-78
2020/12/10 00:45:10;;;;;;;1.00;1.00;;;2.60;99.90;;;;;;5095471;28;20221;-78
2020/12/10 00:47:36;;;;;;;1.83;1.57;;;2.50;99.90;;;;;;5093906;28;20167;-77
2020/12/10 00:50:01;;;;;;;2.20;1.53;;;2.50;99.90;;;;;;5093843;28;20160;-78
2020/12/10 00:52:27;;;;;;;2.13;1.80;;;2.60;99.90;;;;;;5095011;28;20187;-77
2020/12/10 00:54:52;;;;;;;3.37;2.87;;;2.60;99.90;;;;;;5093751;28;20166;-78
2020/12/10 00:57:18;;;;;;;2.30;1.90;;;2.70;99.90;;;;;;5093724;28;20270;-78
2020/12/10 00:59:43;;;;;;;0.60;0.60;;;2.70;99.90;;;;;;5093620;28;20197;-78
2020/12/10 01:02:09;;;;;;;0.57;0.57;;;2.70;99.90;;;;;;5093512;28;20173;-77
2020/12/10 01:04:35;;;;;;;3.20;2.93;;;2.70;99.90;;;;;;5093574;28;20170;-78
2020/12/10 01:07:01;;;;;;;2.87;2.67;;;2.60;99.90;;;;;;5094568;28;20499;-78
2020/12/10 01:09:26;;;;;;;2.80;2.60;;;2.60;99.90;;;;;;5094717;28;20174;-78
2020/12/10 01:11:52;;;;;;;1.80;1.63;;;2.70;99.90;;;;;;5094706;28;20261;-78
2020/12/10 01:14:18;;;;;;;2.77;2.57;;;2.70;99.90;;;;;;5094854;28;20190;-77
2020/12/10 01:16:45;;;;;;;1.77;1.20;;;2.60;99.90;;;;;;5095143;28;20499;-77
2020/12/10 01:19:11;;;;;;;1.00;1.00;;;2.70;99.90;;;;;;5093212;28;20239;-77
2020/12/10 01:21:37;;;;;;;1.33;0.83;;;2.70;99.90;;;;;;5094769;28;20173;-77
2020/12/10 01:24:03;;;;;;;1.73;1.63;;;2.70;99.90;;;;;;5093158;28;20197;-78
2020/12/10 01:26:33;;;;;;;1.27;0.97;;;2.70;99.90;;;;;;5094450;28;20164;-78
2020/12/10 01:28:58;;;;;;;1.67;1.53;;;2.80;99.90;;;;;;5093135;28;20202;-78
2020/12/10 01:31:24;;;;;;;1.63;1.53;;;2.80;99.90;;;;;;5093095;28;20175;-78
2020/12/10 01:33:50;;;;;;;2.30;2.10;;;2.80;99.90;;;;;;5094170;28;20699;-77
2020/12/10 01:36:23;;;;;;;1.47;1.37;;;2.80;99.90;;;;;;5092987;28;20175;-78
2020/12/10 01:38:49;;;;;;;2.33;2.17;;;2.80;99.90;;;;;;5092927;28;20186;-78
2020/12/10 01:41:16;;;;;;;0.60;0.60;;;2.80;99.90;;;;;;5094169;28;20636;-78
2020/12/10 01:43:41;;;;;;;3.47;3.27;;;2.80;99.90;;;;;;5094062;28;20187;-78
2020/12/10 01:46:07;;;;;;;2.30;2.10;;;2.80;99.90;;;;;;5092843;28;20201;-78
2020/12/10 01:48:34;;;;;;;2.50;2.27;;;2.90;99.90;;;;;;5094064;28;20255;-78
2020/12/10 01:51:00;;;;;;;3.60;2.37;;;2.80;99.90;;;;;;5092729;28;20256;-78
2020/12/10 01:53:26;;;;;;;2.40;2.27;;;2.70;99.90;;;;;;5092640;28;20700;-78
2020/12/10 01:55:51;;;;;;;2.13;2.03;;;2.80;99.90;;;;;;5092664;28;20186;-78
2020/12/10 01:58:17;;;;;;;2.27;1.77;;;2.80;99.90;;;;;;5094102;28;20184;-78
2020/12/10 02:00:43;;;;;;;2.60;2.23;;;2.80;99.90;;;;;;5092586;28;20168;-77
2020/12/10 02:03:08;;;;;;;2.73;2.53;;;2.90;99.90;;;;;;5094027;28;20193;-78
2020/12/10 02:05:44;;;;;;;2.07;2.00;;;2.80;99.90;;;;;;5093781;28;20163;-78
2020/12/10 02:08:10;;;;;;;2.43;1.90;;;2.80;99.90;;;;;;5092480;28;20167;-78
2020/12/10 02:10:36;;;;;;;6.00;2.20;;;3.00;99.90;;;;;;5093964;28;20168;-78
2020/12/10 02:13:02;;;;;;;1.40;1.40;;;3.00;99.90;;;;;;5092621;28;20535;-78
2020/12/10 02:15:27;;;;;;;2.50;1.60;;;3.10;99.90;;;;;;5093648;28;20200;-78
2020/12/10 02:17:54;;;;;;;2.60;1.17;;;3.10;99.90;;;;;;5093792;28;20216;-77
2020/12/10 02:20:23;;;;;;;5.07;2.37;;;3.20;99.90;;;;;;5092739;28;20169;-78
2020/12/10 02:22:58;;;;;;;2.50;2.40;;;3.20;99.90;;;;;;5092192;28;20192;-78
2020/12/10 02:25:24;;;;;;;1.60;1.53;;;3.20;99.90;;;;;;5093526;28;20170;-78
2020/12/10 02:27:50;;;;;;;1.90;1.80;;;3.10;99.90;;;;;;5093532;28;20243;-78
2020/12/10 02:30:15;;;;;;;1.70;1.60;;;3.10;99.90;;;;;;5092210;28;20618;-78
2020/12/10 02:32:41;;;;;;;0.37;0.37;;;3.10;99.90;;;;;;5091958;28;20209;-78
2020/12/10 02:35:06;;;;;;;2.23;2.13;;;3.10;99.90;;;;;;5093749;28;20155;-78
2020/12/10 02:37:32;;;;;;;2.80;2.20;;;3.10;99.90;;;;;;5092150;28;20219;-78
2020/12/10 02:39:57;;;;;;;5.23;2.27;;;3.10;99.90;;;;;;5093323;28;20200;-78
2020/12/10 02:42:23;;;;;;;3.00;2.70;;;3.10;99.90;;;;;;5093260;28;20175;-78
2020/12/10 02:44:48;;;;;;;2.40;2.30;;;3.20;99.90;;;;;;5093333;28;20176;-77
2020/12/10 02:47:14;;;;;;;1.83;1.73;;;3.30;99.90;;;;;;5092042;28;20694;-78
2020/12/10 02:49:39;;;;;;;1.40;1.30;;;3.40;99.90;;;;;;5092030;28;20200;-78
2020/12/10 02:52:05;;;;;;;3.67;3.20;;;3.30;99.90;;;;;;5091996;28;20183;-77
2020/12/10 02:54:30;;;;;;;3.33;2.63;;;3.20;99.90;;;;;;5093452;28;20222;-78
2020/12/10 02:56:59;;;;;;;2.43;2.33;;;3.20;99.90;;;;;;5091935;28;20169;-78
2020/12/10 02:59:24;;;;;;;2.70;2.47;;;3.10;99.90;;;;;;5093140;28;20192;-78
2020/12/10 03:01:53;;;;;;;2.27;2.17;;;3.00;99.90;;;;;;5092221;28;20196;-78
2020/12/10 03:04:18;;;;;;;6.53;2.00;;;3.00;99.90;;;;;;5091806;28;20196;-77
2020/12/10 03:06:44;;;;;;;1.53;1.43;;;3.00;99.90;;;;;;5091868;28;20169;-78
2020/12/10 03:09:09;;;;;;;1.90;1.77;;;3.10;99.90;;;;;;5093650;28;20171;-78
2020/12/10 03:11:35;;;;;;;1.87;1.77;;;3.20;99.90;;;;;;5093093;28;20170;-78
2020/12/10 03:14:00;;;;;;;2.03;1.93;;;3.30;99.90;;;;;;5092987;28;20191;-77
2020/12/10 03:16:26;;;;;;;1.13;1.13;;;3.30;99.90;;;;;;5091791;28;20536;-78
2020/12/10 03:18:51;;;;;;;2.47;2.27;;;3.20;99.90;;;;;;5092959;28;20188;-78
2020/12/10 03:21:17;;;;;;;1.33;1.33;;;3.10;99.90;;;;;;5091768;28;20170;-78
2020/12/10 03:23:42;;;;;;;2.20;1.50;;;3.10;99.90;;;;;;5091661;28;20186;-77
2020/12/10 03:26:08;;;;;;;3.83;1.67;;;3.20;99.90;;;;;;5091728;28;20172;-78
2020/12/10 03:28:33;;;;;;;2.27;2.17;;;3.20;99.90;;;;;;5092938;28;20666;-78
2020/12/10 03:30:59;;;;;;;2.20;1.43;;;3.20;99.90;;;;;;5094737;28;20186;-77
2020/12/10 03:33:24;;;;;;;3.90;3.60;;;3.20;99.90;;;;;;5096465;28;20224;-78
2020/12/10 03:35:50;;;;;;;1.97;1.87;;;3.20;99.90;;;;;;5096569;28;20649;-77
2020/12/10 03:38:15;;;;;;;4.47;3.50;;;3.20;99.90;;;;;;5096663;28;20195;-78
2020/12/10 03:40:41;;;;;;;1.63;1.53;;;3.20;99.90;;;;;;5097064;28;20159;-78
2020/12/10 03:43:06;;;;;;;2.27;1.60;;;3.20;99.90;;;;;;5096532;28;20200;-78
2020/12/10 03:45:33;;;;;;;4.53;1.47;;;3.20;99.90;;;;;;5095147;28;20179;-78
2020/12/10 03:47:59;;;;;;;2.43;1.73;;;3.20;99.90;;;;;;5095097;28;20176;-78
2020/12/10 03:50:24;;;;;;;2.67;2.50;;;3.10;99.90;;;;;;5096328;28;20168;-77
2020/12/10 03:52:50;;;;;;;2.43;2.33;;;3.00;99.90;;;;;;5096227;28;20191;-78
2020/12/10 03:55:15;;;;;;;1.83;1.73;;;2.90;99.90;;;;;;5096220;28;20252;-78
2020/12/10 03:57:41;;;;;;;2.53;2.33;;;2.80;99.90;;;;;;5094853;28;20584;-78
2020/12/10 04:00:06;;;;;;;0.87;0.87;;;2.80;99.90;;;;;;5096132;28;20572;-77
2020/12/10 04:02:32;;;;;;;2.00;1.90;;;2.80;99.90;;;;;;5096318;28;20275;-78
2020/12/10 04:04:57;;;;;;;1.80;1.43;;;2.80;99.90;;;;;;5096302;28;20169;-78
2020/12/10 04:07:23;;;;;;;1.40;1.30;;;2.90;99.90;;;;;;5094768;28;20232;-78
2020/12/10 04:09:48;;;;;;;2.07;1.93;;;2.90;99.90;;;;;;5095926;28;20226;-78
2020/12/10 04:12:14;;;;;;;1.60;1.50;;;2.90;99.90;;;;;;5095813;28;20685;-77
2020/12/10 04:14:39;;;;;;;4.00;3.63;;;3.00;99.90;;;;;;5096399;28;20169;-77
2020/12/10 04:17:05;;;;;;;1.43;1.43;;;3.00;99.90;;;;;;5095818;28;20166;-77
2020/12/10 04:19:30;;;;;;;2.23;2.03;;;3.00;99.90;;;;;;5094426;28;20282;-78
2020/12/10 04:21:56;;;;;;;1.90;1.80;;;2.90;99.90;;;;;;5094400;28;20168;-78
2020/12/10 04:24:21;;;;;;;3.03;2.77;;;2.90;99.90;;;;;;5094310;28;20246;-78
2020/12/10 04:26:47;;;;;;;2.73;2.47;;;2.90;99.90;;;;;;5095629;28;20169;-77
2020/12/10 04:29:13;;;;;;;2.77;2.63;;;2.90;99.90;;;;;;5094265;28;20600;-77
2020/12/10 04:31:40;;;;;;;1.63;1.53;;;2.90;99.90;;;;;;5094262;28;20205;-77
2020/12/10 04:34:06;;;;;;;3.40;2.97;;;2.90;99.90;;;;;;5094062;28;20203;-78
2020/12/10 04:36:31;;;;;;;3.40;3.10;;;3.00;99.90;;;;;;5095427;28;20726;-77
2020/12/10 04:38:56;;;;;;;3.43;3.10;;;2.90;99.90;;;;;;5095296;28;20189;-78
2020/12/10 04:41:22;;;;;;;2.77;2.13;;;2.80;99.90;;;;;;5095485;28;20518;-77
2020/12/10 04:43:48;;;;;;;0.50;0.50;;;2.70;99.90;;;;;;5093220;28;20191;-78
2020/12/10 04:46:14;;;;;;;1.60;1.37;;;2.60;99.90;;;;;;5095191;28;20171;-78
2020/12/10 04:48:40;;;;;;;2.30;1.67;;;2.60;99.90;;;;;;5093859;28;20166;-77
2020/12/10 04:51:07;;;;;;;1.67;1.57;;;2.60;99.90;;;;;;5093882;28;20170;-78
2020/12/10 04:53:33;;;;;;;1.30;1.20;;;2.60;99.90;;;;;;5095016;28;20182;-78
2020/12/10 04:56:05;;;;;;;3.83;2.17;;;2.60;99.90;;;;;;5094982;28;20182;-78
2020/12/10 04:58:30;;;;;;;5.27;1.80;;;2.60;99.90;;;;;;5095207;28;20181;-78
2020/12/10 05:01:01;;;;;;;2.83;2.73;;;2.70;99.90;;;;;;5095182;28;20213;-78
2020/12/10 05:03:26;;;;;;;1.50;1.40;;;2.60;99.90;;;;;;5093600;28;20252;-77
2020/12/10 05:05:52;;;;;;;1.70;1.60;;;2.70;99.90;;;;;;5093585;28;20171;-78
2020/12/10 05:08:31;;;;;;;1.83;1.73;;;2.70;99.90;;;;;;5093539;28;20176;-78
2020/12/10 05:10:57;;;;;;;0.93;0.93;;;2.70;99.90;;;;;;5095052;28;20252;-77
2020/12/10 05:13:23;;;;;;;1.13;1.13;;;2.60;99.90;;;;;;5093404;28;20242;-77
2020/12/10 05:15:49;;;;;;;1.57;1.47;;;2.30;99.90;;;;;;5094922;28;20562;-77
2020/12/10 05:18:15;;;;;;;2.90;2.17;;;2.20;99.90;;;;;;5093288;28;20187;-78
2020/12/10 05:21:00;;;;;;;1.73;1.63;;;2.20;99.90;;;;;;5094581;28;20251;-78
2020/12/10 05:23:39;;;;;;;2.20;2.00;;;2.30;99.90;;;;;;5093228;28;20184;-77
2020/12/10 05:26:06;;;;;;;1.80;1.53;;;2.20;99.90;;;;;;5093245;28;20178;-78
2020/12/10 05:28:39;;;;;;;2.83;2.57;;;2.20;99.90;;;;;;5094414;28;20530;-77
2020/12/10 05:31:07;;;;;;;1.13;1.03;;;2.10;99.90;;;;;;5093267;28;20273;-77
2020/12/10 05:33:33;;;;;;;1.43;1.33;;;2.00;99.90;;;;;;5099709;28;20206;-79
2020/12/10 05:36:12;;;;;;;3.07;2.83;;;1.90;99.90;;;;;;5104159;28;20172;-79
2020/12/10 05:38:53;;;;;;;1.90;1.80;;;1.90;99.90;;;;;;5105040;28;20187;-79
2020/12/10 05:41:21;;;;;;;2.13;1.30;;;1.90;99.90;;;;;;5104590;28;20185;-79
2020/12/10 05:43:47;;;;;;;1.47;1.43;;;2.00;99.90;;;;;;5104096;28;20205;-79
2020/12/10 05:46:15;;;;;;;3.07;2.77;;;2.10;99.90;;;;;;5102625;28;20181;-80
2020/12/10 05:48:42;;;;;;;1.83;1.60;;;2.00;99.90;;;;;;5103905;28;20630;-79
2020/12/10 05:51:21;;;;;;;1.80;1.70;;;2.10;99.90;;;;;;5103239;28;20174;-80
2020/12/10 05:53:49;;;;;;;1.93;1.83;;;2.20;99.90;;;;;;5103170;28;20264;-79
2020/12/10 05:56:17;;;;;;;2.33;1.87;;;2.20;99.90;;;;;;5103941;28;20634;-79
2020/12/10 05:58:53;;;;;;;0.87;0.87;;;2.20;99.90;;;;;;5102720;28;20702;-79
2020/12/10 06:01:26;;;;;;;1.27;1.17;;;2.20;99.90;;;;;;5101717;28;20620;-79
2020/12/10 06:03:53;;;;;;;0.73;0.73;;;2.30;99.90;;;;;;5103708;28;20186;-79
2020/12/10 06:06:20;;;;;;;3.23;3.03;;;2.30;99.90;;;;;;5102433;28;20642;-79
2020/12/10 06:08:48;;;;;;;3.30;3.00;;;2.30;99.90;;;;;;5103605;28;20170;-79
2020/12/10 06:11:20;;;;;;;2.00;1.90;;;2.30;99.90;;;;;;5103927;28;20605;-79
2020/12/10 06:13:47;;;;;;;2.40;2.30;;;2.20;99.90;;;;;;5103824;28;20193;-79
2020/12/10 06:16:18;;;;;;;2.90;2.67;;;2.20;99.90;;;;;;5103592;28;20258;-79
2020/12/10 06:19:02;;;;;;;3.33;2.33;;;2.20;99.90;;;;;;5104018;28;20191;-79
2020/12/10 06:21:46;;;;;;;1.40;1.30;;;2.20;99.90;;;;;;5103256;28;20190;-79
2020/12/10 06:24:27;;;;;;;1.57;1.43;;;2.10;99.90;;;;;;5102565;28;20195;-79
2020/12/10 06:26:54;;;;;;;3.30;2.33;;;2.10;99.90;;;;;;5103666;28;20163;-79
2020/12/10 06:29:30;;;;;;;1.97;1.87;;;2.10;99.90;;;;;;5103499;28;20176;-80
2020/12/10 06:32:14;;;;;;;2.23;2.13;;;2.10;99.90;;;;;;5102529;28;20162;-79
2020/12/10 06:34:43;;;;;;;1.17;0.60;;;2.10;99.90;;;;;;5105117;28;20159;-80
2020/12/10 06:37:27;;;;;;;2.43;2.27;;;2.20;99.90;;;;;;5102609;28;20368;-79
2020/12/10 06:40:01;;;;;;;1.60;1.50;;;2.30;99.90;;;;;;5102675;28;20194;-79
2020/12/10 06:42:44;;;;;;;1.30;1.20;;;2.40;99.90;;;;;;5103571;28;20195;-79
2020/12/10 06:45:26;;;;;;;2.33;2.13;;;2.40;99.90;;;;;;5103794;28;20585;-79
2020/12/10 06:47:51;;;;;;;2.10;2.00;;;2.30;99.90;;;;;;5093063;28;20193;-80
2020/12/10 06:50:28;;;;;;;1.80;1.67;;;2.30;99.90;;;;;;5092664;28;20637;-80
2020/12/10 06:53:15;;;;;;;0.33;0.33;;;2.20;99.90;;;;;;5094341;28;20675;-79
2020/12/10 06:55:56;;;;;;;2.83;2.63;;;2.10;99.90;;;;;;5103431;28;20649;-80
2020/12/10 06:58:35;;;;;;;2.20;1.43;;;1.90;99.90;;;;;;5101845;28;20194;-80
2020/12/10 07:01:35;;;;;;;6.03;2.60;;;1.90;99.90;;;;;;5102601;28;20147;-81
2020/12/10 07:04:15;;;;;;;0.90;0.90;;;1.90;99.90;;;;;;5101539;28;20190;-80
2020/12/10 07:06:40;;;;;;;3.63;2.83;;;1.90;99.90;;;;;;5102525;28;20162;-82
2020/12/10 07:09:07;;;;;;;2.53;2.37;;;2.10;99.90;;;;;;5099308;28;20185;-78
2020/12/10 07:11:38;;;;;;;1.27;0.97;;;2.20;99.90;;;;;;5100997;28;20180;-82
2020/12/10 07:14:32;;;;;;;2.53;2.33;;;2.30;99.90;;;;;;5106014;28;20200;-79
2020/12/10 07:17:00;;;;;;;0.90;0.90;;;2.20;99.90;;;;;;5104283;28;20264;-79
2020/12/10 07:19:26;;;;;;;1.77;1.67;;;2.20;99.90;;;;;;5105339;28;20184;-79
2020/12/10 07:21:51;;;;;;;1.13;1.03;;;2.20;99.90;;;;;;5106438;28;20182;-79
2020/12/10 07:24:18;;;;;;;3.60;2.40;;;2.10;99.90;;;;;;5106323;28;20254;-79
2020/12/10 07:26:44;;;;;;;1.60;1.53;;;2.00;99.90;;;;;;5104281;28;20162;-79
2020/12/10 07:29:09;;;;;;;0.50;0.50;;;2.00;99.90;;;;;;5107932;28;20608;-79
2020/12/10 07:31:35;;;;;;;0.80;0.60;;;2.10;99.90;;;;;;5106256;28;20174;-79
2020/12/10 07:34:01;;;;;;;1.07;0.97;;;2.10;99.90;;;;;;5106881;28;20222;-78
2020/12/10 07:36:28;;;;;;;1.40;1.33;;;2.10;99.90;;;;;;5104587;28;20167;-79
2020/12/10 07:38:53;;;;;;;1.20;1.17;;;2.10;99.90;;;;;;5107109;28;20187;-79
2020/12/10 07:41:19;;;;;;;2.07;0.73;;;2.00;99.90;;;;;;5105579;28;20182;-79
2020/12/10 07:43:50;;;;;;;1.90;1.80;;;1.90;99.90;;;;;;5104749;28;20206;-79
2020/12/10 07:46:16;;;;;;;1.50;1.40;;;2.00;99.90;;;;;;5104192;28;20552;-79
2020/12/10 07:48:42;;;;;;;2.73;2.53;;;2.00;99.90;;;;;;5100250;28;20179;-79
2020/12/10 07:51:08;;;;;;;3.37;1.57;;;2.00;99.90;;;;;;5100397;28;20224;-78
2020/12/10 07:53:34;;;;;;;1.87;1.67;;;2.00;99.90;;;;;;5101119;28;20289;-79
2020/12/10 07:56:07;;;;;;;5.10;1.90;;;2.10;99.90;;;;;;5105791;28;20228;-79
2020/12/10 07:58:36;;;;;;;1.17;1.17;;;2.10;99.90;;;;;;5106607;28;20190;-79
2020/12/10 08:01:04;;;;;;;2.07;1.50;;;2.10;99.90;;;;;;5106541;28;20685;-79
2020/12/10 08:03:49;;;;;;;1.47;1.37;;;2.00;99.90;;;;;;5107488;28;20190;-80
2020/12/10 08:06:16;;;;;;;0.80;0.73;;;2.00;99.90;;;;;;5108982;28;20170;-78
2020/12/10 08:08:48;;;;;;;2.67;2.47;;;2.00;99.90;;;;;;5104970;28;20220;-77
2020/12/10 08:11:19;;;;;;;1.57;1.47;;;1.90;99.90;;;;;;5105961;28;20163;-79
2020/12/10 08:14:00;;;;;;;0.83;0.83;;;1.70;99.90;;;;;;5106725;28;20547;-80
2020/12/10 08:16:40;;;;;;;0.77;0.77;;;1.50;99.90;;;;;;5106942;28;20162;-79
2020/12/10 08:19:18;;;;;;;0.90;0.90;;;1.30;99.90;;;;;;5108079;28;20221;-79
2020/12/10 08:21:46;;;;;;;1.13;1.13;;;1.50;99.90;;;;;;5108905;28;20166;-79
2020/12/10 08:24:14;;;;;;;2.50;2.30;;;1.70;99.90;;;;;;5110158;28;20197;-79
2020/12/10 08:26:57;;;;;;;2.67;1.13;;;1.90;99.90;;;;;;5103181;28;20223;-80
2020/12/10 08:29:23;;;;;;;1.03;0.97;;;2.00;99.90;;;;;;5095813;28;20162;-79
2020/12/10 08:31:48;;;;;;;1.63;1.53;;;2.10;99.90;;;;;;5097044;28;20240;-80
2020/12/10 08:34:18;;;;;;;2.33;2.13;;;2.20;99.90;;;;;;5097551;28;20220;-79
2020/12/10 08:36:45;;;;;;;1.73;1.63;;;2.30;99.90;;;;;;5099187;28;20176;-78
2020/12/10 08:39:10;;;;;;;2.73;2.53;;;2.40;99.90;;;;;;5098922;28;20212;-80
2020/12/10 08:41:37;;;;;;;3.23;2.70;;;2.50;99.90;;;;;;5099022;28;20158;-79
2020/12/10 08:44:05;;;;;;;1.87;1.77;;;2.50;99.90;;;;;;5098070;28;20184;-80
2020/12/10 08:46:33;;;;;;;2.20;2.10;;;2.60;99.90;;;;;;5096789;28;20170;-78
2020/12/10 08:49:21;;;;;;;1.63;1.17;;;2.60;99.90;;;;;;5102205;28;20189;-80
2020/12/10 08:51:49;;;;;;;0.73;0.73;;;2.70;99.90;;;;;;5095209;28;20262;-81
2020/12/10 08:54:16;;;;;;;2.87;2.67;;;2.70;99.90;;;;;;5094586;28;20190;-79
2020/12/10 08:56:42;;;;;;;2.03;1.93;;;2.80;99.90;;;;;;5094538;28;20171;-81
2020/12/10 08:59:08;;;;;;;1.60;1.50;;;2.80;99.90;;;;;;5094762;28;20280;-80
2020/12/10 09:01:35;;;;;;;2.03;1.93;;;2.80;99.90;;;;;;5094396;28;20171;-80
2020/12/10 09:04:04;;;;;;;1.60;1.17;;;2.80;99.90;;;;;;5095756;28;20178;-80
2020/12/10 09:06:37;;;;;;;1.37;1.23;;;2.90;99.90;;;;;;5095160;28;20173;-79
2020/12/10 09:09:04;;;;;;;1.43;1.33;;;3.00;99.90;;;;;;5096986;28;20270;-80
2020/12/10 09:11:30;;;;;;;1.03;1.03;;;3.00;99.90;;;;;;5097047;28;20210;-79
2020/12/10 09:13:59;;;;;;;2.07;1.97;;;3.10;99.90;;;;;;5096866;28;20189;-81
2020/12/10 09:16:28;;;;;;;0.93;0.93;;;3.10;99.90;;;;;;5099715;28;20202;-80
2020/12/10 09:18:54;;;;;;;1.93;1.83;;;3.10;99.90;;;;;;5095301;28;20651;-79
2020/12/10 09:21:20;;;;;;;3.63;2.67;;;3.10;99.90;;;;;;5098391;28;20210;-79
2020/12/10 09:23:45;;;;;;;2.73;2.53;;;3.20;99.90;;;;;;5104919;28;20666;-79
2020/12/10 09:26:12;;;;;;;0.60;0.60;;;3.20;99.90;;;;;;5097367;28;20197;-79
2020/12/10 09:28:38;;;;;;;1.17;0.97;;;3.10;99.90;;;;;;5094266;28;20172;-79
2020/12/10 09:31:04;;;;;;;2.77;2.57;;;3.10;99.90;;;;;;5096597;28;20691;-79
2020/12/10 09:33:30;;;;;;;2.63;1.87;;;3.00;99.90;;;;;;5094747;28;20275;-80
2020/12/10 09:35:55;;;;;;;1.83;1.73;;;3.00;99.90;;;;;;5097719;28;20637;-79
2020/12/10 09:38:21;;;;;;;4.13;3.73;;;3.00;99.90;;;;;;5099688;28;20266;-79
2020/12/10 09:40:46;;;;;;;1.53;1.50;;;3.00;99.90;;;;;;5102435;28;20313;-78
2020/12/10 09:43:12;;;;;;;2.80;1.47;;;3.10;99.90;;;;;;5096074;28;20635;-80
2020/12/10 09:45:38;;;;;;;1.87;1.67;;;3.10;99.90;;;;;;5096667;28;20640;-79
2020/12/10 09:48:03;;;;;;;2.93;2.73;;;3.20;99.90;;;;;;5097220;28;20639;-80
2020/12/10 09:50:31;;;;;;;2.40;2.30;;;3.30;99.90;;;;;;5098885;28;20173;-81
2020/12/10 09:53:05;;;;;;;2.07;1.97;;;3.40;99.90;;;;;;5093428;28;20199;-81
2020/12/10 09:58:00;;;;;;;2.10;1.13;;;3.50;99.90;;;;;;5098793;28;20249;-82
2020/12/10 10:00:25;;;;;;;2.30;2.20;;;3.50;99.90;;;;;;5106158;28;20169;-77
2020/12/10 10:02:51;;;;;;;2.30;2.17;;;3.50;99.90;;;;;;5100751;28;20209;-79
2020/12/10 10:05:17;;;;;;;1.97;1.87;;;3.50;99.90;;;;;;5100193;28;20187;-79
2020/12/10 10:07:42;;;;;;;1.83;1.73;;;3.60;99.90;;;;;;5095723;28;20225;-80
2020/12/10 10:10:08;;;;;;;2.33;2.13;;;3.60;99.90;;;;;;5094356;28;20177;-80
2020/12/10 10:12:33;;;;;;;1.60;1.50;;;3.40;99.90;;;;;;5094274;28;20223;-80
2020/12/10 10:14:59;;;;;;;1.03;1.03;;;3.40;99.90;;;;;;5093856;28;20677;-80
2020/12/10 10:17:24;;;;;;;3.63;3.33;;;3.40;99.90;;;;;;5094306;28;20177;-80
2020/12/10 10:19:50;;;;;;;7.53;3.83;;;3.40;99.90;;;;;;5096181;28;20197;-80
2020/12/10 10:22:17;;;;;;;1.73;1.63;;;3.40;99.90;;;;;;5094373;28;20182;-79
2020/12/10 10:24:43;;;;;;;3.27;3.07;;;3.50;99.90;;;;;;5094350;28;20184;-80
2020/12/10 10:27:08;;;;;;;2.30;1.97;;;3.50;99.90;;;;;;5097854;28;20179;-78
2020/12/10 10:29:34;;;;;;;4.20;3.13;;;3.60;99.90;;;;;;5095308;28;20184;-81
2020/12/10 10:31:59;;;;;;;1.53;1.43;;;3.70;99.90;;;;;;5096729;28;20177;-81
2020/12/10 10:34:25;;;;;;;1.83;1.73;;;3.70;99.90;;;;;;5096455;28;20201;-85
2020/12/10 10:36:50;;;;;;;2.70;2.50;;;3.60;99.90;;;;;;5106995;28;20263;-86
2020/12/10 10:39:17;;;;;;;3.60;3.27;;;3.50;99.90;;;;;;5094360;28;20192;-86
2020/12/10 10:41:47;;;;;;;1.97;1.40;;;3.60;99.90;;;;;;5098479;28;20176;-81
2020/12/10 10:44:13;;;;;;;3.50;3.20;;;3.70;99.90;;;;;;5100200;28;20195;-78
2020/12/10 10:46:38;;;;;;;1.73;1.63;;;3.80;99.90;;;;;;5096845;28;20541;-81
2020/12/10 10:49:04;;;;;;;2.40;2.20;;;3.80;99.90;;;;;;5097107;28;20177;-79
2020/12/10 10:51:30;;;;;;;3.33;3.13;;;3.80;99.90;;;;;;5099843;28;20644;-83
2020/12/10 10:53:55;;;;;;;1.77;1.67;;;3.80;99.90;;;;;;5099992;28;20581;-78
2020/12/10 10:56:25;;;;;;;2.17;1.53;;;3.70;99.90;;;;;;5098939;28;20226;-81
2020/12/10 10:58:50;;;;;;;1.50;1.40;;;3.70;99.90;;;;;;5097649;28;20197;-81
2020/12/10 11:01:23;;;;;;;1.93;0.70;;;3.80;99.90;;;;;;5098173;28;20166;-81
2020/12/10 11:03:50;;;;;;;1.17;1.13;;;3.90;99.90;;;;;;5097355;28;20223;-81
2020/12/10 11:06:15;;;;;;;2.23;1.97;;;3.90;99.90;;;;;;5098669;28;20153;-81
2020/12/10 11:08:41;;;;;;;2.80;2.60;;;4.00;99.90;;;;;;5099136;28;20200;-81
2020/12/10 11:11:07;;;;;;;2.47;2.37;;;4.00;99.90;;;;;;5100718;28;20221;-82
2020/12/10 11:13:32;;;;;;;1.33;1.33;;;4.00;99.90;;;;;;5098328;28;20535;-82
2020/12/10 11:15:58;;;;;;;4.40;4.00;;;4.00;99.90;;;;;;5099381;28;20263;-80
2020/12/10 11:18:23;;;;;;;1.70;1.10;;;3.90;99.90;;;;;;5099062;28;20224;-82
2020/12/10 11:20:49;;;;;;;2.83;2.73;;;4.00;99.90;;;;;;5098376;28;20193;-83
2020/12/10 11:23:14;;;;;;;1.93;1.83;;;4.10;99.90;;;;;;5097157;28;20589;-81
2020/12/10 11:25:40;;;;;;;3.07;2.00;;;4.00;99.90;;;;;;5096814;28;20178;-81
2020/12/10 11:28:06;;;;;;;1.93;1.83;;;4.00;99.90;;;;;;5097253;28;20172;-86
2020/12/10 11:30:32;;;;;;;1.80;1.47;;;4.10;99.90;;;;;;5096701;28;20188;-81
2020/12/10 11:32:57;;;;;;;2.17;2.03;;;4.10;99.90;;;;;;5097228;28;20217;-82
2020/12/10 11:35:23;;;;;;;2.43;2.23;;;4.10;99.90;;;;;;5098091;28;20637;-84
2020/12/10 11:37:50;;;;;;;1.27;1.27;;;4.20;99.90;;;;;;5096751;28;20233;-84
2020/12/10 11:40:15;;;;;;;1.27;1.20;;;4.10;99.90;;;;;;5096357;28;20188;-80
2020/12/10 11:42:41;;;;;;;0.93;0.93;;;4.10;99.90;;;;;;5097316;28;20194;-83
2020/12/10 11:45:07;;;;;;;2.70;2.53;;;4.10;99.90;;;;;;5096294;28;20169;-83
2020/12/10 11:47:32;;;;;;;1.53;1.37;;;4.20;99.90;;;;;;5097730;28;20166;-84
2020/12/10 11:49:58;;;;;;;1.97;1.47;;;4.30;99.90;;;;;;5096154;28;20169;-84
2020/12/10 11:52:24;;;;;;;0.77;0.77;;;4.40;99.90;;;;;;5096067;28;20585;-84
2020/12/10 11:54:49;;;;;;;3.93;2.00;;;4.40;99.90;;;;;;5095845;28;20200;-83
2020/12/10 11:57:15;;;;;;;2.17;2.00;;;4.50;99.90;;;;;;5096328;28;20261;-82
2020/12/10 11:59:40;;;;;;;1.33;1.23;;;4.60;99.90;;;;;;5097784;28;20669;-83
2020/12/10 12:02:08;;;;;;;2.33;2.13;;;4.60;99.90;;;;;;5096221;28;20162;-84
2020/12/10 12:04:35;;;;;;;2.00;1.90;;;4.70;99.90;;;;;;5095849;28;20170;-85
2020/12/10 12:07:02;;;;;;;1.13;1.13;;;4.80;99.90;;;;;;5095548;28;20172;-84
2020/12/10 12:09:28;;;;;;;1.23;1.13;;;4.80;99.90;;;;;;5095620;28;20177;-84
2020/12/10 12:11:53;;;;;;;4.57;2.77;;;4.70;99.90;;;;;;5096192;28;20534;-84
2020/12/10 12:14:19;;;;;;;2.37;1.57;;;4.60;99.90;;;;;;5097841;28;20212;-81
2020/12/10 12:16:46;;;;;;;1.83;1.73;;;4.70;99.90;;;;;;5098613;28;20182;-82
2020/12/10 12:19:11;;;;;;;3.93;2.43;;;4.80;99.90;;;;;;5118830;22;20218;-80
2020/12/10 12:21:37;;;;;;;3.20;2.53;;;4.90;99.90;;;;;;5078247;28;20170;-80
2020/12/10 12:24:02;;;;;;;1.87;1.40;;;4.90;99.90;;;;;;5078266;28;20167;-80
2020/12/10 12:26:30;;;;;;;1.63;1.53;;;5.00;99.90;;;;;;5077863;28;20668;-84
2020/12/10 12:28:55;;;;;;;4.20;3.90;;;5.00;99.90;;;;;;5077523;28;20186;-81
2020/12/10 12:31:34;;;;;;;2.73;2.63;;;5.10;99.90;;;;;;5077518;28;20181;-82
2020/12/10 12:34:00;;;;;;;0.90;0.87;;;5.10;99.90;;;;;;5077439;28;20165;-81
2020/12/10 12:36:25;;;;;;;1.83;1.73;;;5.20;99.90;;;;;;5077363;28;20170;-81
2020/12/10 12:38:51;;;;;;;2.10;2.00;;;5.20;99.90;;;;;;5077220;28;20202;-81
2020/12/10 12:41:18;;;;;;;0.97;0.97;;;5.10;99.90;;;;;;5077341;28;20177;-82
2020/12/10 12:43:43;;;;;;;2.30;2.10;;;5.10;99.90;;;;;;5077319;28;20166;-81
2020/12/10 12:46:09;;;;;;;2.40;1.63;;;5.00;99.90;;;;;;5077255;28;20519;-82
2020/12/10 12:48:36;;;;;;;2.27;2.07;;;5.00;99.90;;;;;;5077025;28;20247;-82
2020/12/10 12:51:02;;;;;;;1.10;1.00;;;5.00;99.90;;;;;;5077088;28;20697;-80
2020/12/10 12:53:28;;;;;;;3.00;2.67;;;5.10;99.90;;;;;;5095401;28;20166;-80
2020/12/10 12:55:54;;;;;;;3.93;1.90;;;5.10;99.90;;;;;;5077041;28;20699;-81
2020/12/10 12:58:19;;;;;;;1.50;1.07;;;5.10;99.90;;;;;;5094953;28;20677;-81
2020/12/10 13:00:45;;;;;;;2.60;2.47;;;5.10;99.90;;;;;;5077002;28;20170;-81
2020/12/10 13:03:10;;;;;;;1.60;1.50;;;5.20;99.90;;;;;;5076191;28;20511;-81
2020/12/10 13:05:36;;;;;;;3.80;3.00;;;5.20;99.90;;;;;;5094980;28;20245;-81
2020/12/10 13:08:02;;;;;;;3.50;1.87;;;5.20;99.90;;;;;;5076718;28;20661;-81
2020/12/10 13:10:28;;;;;;;3.77;3.47;;;5.20;99.90;;;;;;5076703;28;20178;-81
2020/12/10 13:12:54;;;;;;;2.90;2.13;;;5.10;99.90;;;;;;5076695;28;20178;-81